sensor_id;sensor_type;location;lat;lon;timestamp;P1;durP1;ratioP1;P2;durP2;ratioP2
12567;SDS011;6349;50.904;6.136;2023-02-28T00:02:00;4.83;;;2.30;;
12567;SDS011;6349;50.904;6.136;2023-02-28T00:04:00;3.27;;;2.10;;
12567;SDS011;6349;50.904;6.136;2023-02-28T00:06:02;4.87;;;2.47;;
12567;SDS011;6349;50.904;6.136;2023-02-28T00:08:04;5.03;;;2.30;;
12567;SDS011;6349;50.904;6.136;2023-02-28T00:10:06;5.40;;;2.60;;
12567;SDS011;6349;50.904;6.136;2023-02-28T00:12:07;3.10;;;2.30;;
12567;SDS011;6349;50.904;6.136;2023-02-28T00:14:10;4.47;;;2.23;;
12567;SDS011;6349;50.904;6.136;2023-02-28T00:16:11;4.70;;;2.60;;
12567;SDS011;6349;50.904;6.136;2023-02-28T00:18:15;4.77;;;2.30;;
12567;SDS011;6349;50.904;6.136;2023-02-28T00:20:16;4.70;;;2.20;;
12567;SDS011;6349;50.904;6.136;2023-02-28T00:22:18;4.10;;;2.40;;
12567;SDS011;6349;50.904;6.136;2023-02-28T00:24:21;3.00;;;2.30;;
12567;SDS011;6349;50.904;6.136;2023-02-28T00:26:21;5.53;;;2.17;;
12567;SDS011;6349;50.904;6.136;2023-02-28T00:28:22;4.03;;;2.00;;
12567;SDS011;6349;50.904;6.136;2023-02-28T00:30:23;2.93;;;2.40;;
12567;SDS011;6349;50.904;6.136;2023-02-28T00:32:24;3.47;;;2.33;;
12567;SDS011;6349;50.904;6.136;2023-02-28T00:34:25;6.47;;;2.70;;
12567;SDS011;6349;50.904;6.136;2023-02-28T00:36:25;3.50;;;2.00;;
12567;SDS011;6349;50.904;6.136;2023-02-28T00:38:26;3.70;;;2.13;;
12567;SDS011;6349;50.904;6.136;2023-02-28T00:40:26;4.17;;;2.23;;
12567;SDS011;6349;50.904;6.136;2023-02-28T00:42:27;4.37;;;2.17;;
12567;SDS011;6349;50.904;6.136;2023-02-28T00:44:28;2.70;;;2.03;;
12567;SDS011;6349;50.904;6.136;2023-02-28T00:46:29;3.83;;;2.27;;
12567;SDS011;6349;50.904;6.136;2023-02-28T00:48:30;4.43;;;2.43;;
12567;SDS011;6349;50.904;6.136;2023-02-28T00:50:30;2.50;;;2.00;;
12567;SDS011;6349;50.904;6.136;2023-02-28T00:52:33;4.00;;;2.33;;
12567;SDS011;6349;50.904;6.136;2023-02-28T00:54:34;2.90;;;2.10;;
12567;SDS011;6349;50.904;6.136;2023-02-28T00:56:35;3.17;;;2.13;;
12567;SDS011;6349;50.904;6.136;2023-02-28T00:58:35;3.23;;;2.30;;
12567;SDS011;6349;50.904;6.136;2023-02-28T01:00:36;2.63;;;1.97;;
12567;SDS011;6349;50.904;6.136;2023-02-28T01:02:37;2.90;;;1.93;;
12567;SDS011;6349;50.904;6.136;2023-02-28T01:04:37;3.20;;;1.97;;
12567;SDS011;6349;50.904;6.136;2023-02-28T01:06:38;3.30;;;2.20;;
12567;SDS011;6349;50.904;6.136;2023-02-28T01:08:39;3.43;;;1.90;;
12567;SDS011;6349;50.904;6.136;2023-02-28T01:10:41;3.00;;;2.10;;
12567;SDS011;6349;50.904;6.136;2023-02-28T01:12:42;3.13;;;1.97;;
12567;SDS011;6349;50.904;6.136;2023-02-28T01:14:42;3.30;;;2.13;;
12567;SDS011;6349;50.904;6.136;2023-02-28T01:16:43;2.93;;;1.97;;
12567;SDS011;6349;50.904;6.136;2023-02-28T01:18:44;2.37;;;1.87;;
12567;SDS011;6349;50.904;6.136;2023-02-28T01:20:44;3.77;;;2.10;;
12567;SDS011;6349;50.904;6.136;2023-02-28T01:22:46;2.80;;;2.10;;
12567;SDS011;6349;50.904;6.136;2023-02-28T01:24:47;3.17;;;2.17;;
12567;SDS011;6349;50.904;6.136;2023-02-28T01:26:48;3.70;;;2.20;;
12567;SDS011;6349;50.904;6.136;2023-02-28T01:28:49;4.90;;;2.23;;
12567;SDS011;6349;50.904;6.136;2023-02-28T01:30:51;4.20;;;2.17;;
12567;SDS011;6349;50.904;6.136;2023-02-28T01:32:51;3.00;;;2.10;;
12567;SDS011;6349;50.904;6.136;2023-02-28T01:34:53;4.07;;;2.30;;
12567;SDS011;6349;50.904;6.136;2023-02-28T01:36:54;3.70;;;2.10;;
12567;SDS011;6349;50.904;6.136;2023-02-28T01:38:55;2.93;;;2.17;;
12567;SDS011;6349;50.904;6.136;2023-02-28T01:40:56;2.80;;;1.90;;
12567;SDS011;6349;50.904;6.136;2023-02-28T01:42:57;4.27;;;1.93;;
12567;SDS011;6349;50.904;6.136;2023-02-28T01:45:29;3.63;;;2.30;;
12567;SDS011;6349;50.904;6.136;2023-02-28T01:47:21;2.53;;;1.90;;
12567;SDS011;6349;50.904;6.136;2023-02-28T01:49:25;3.03;;;2.10;;
12567;SDS011;6349;50.904;6.136;2023-02-28T01:51:28;3.00;;;1.90;;
12567;SDS011;6349;50.904;6.136;2023-02-28T01:53:36;3.77;;;2.17;;
12567;SDS011;6349;50.904;6.136;2023-02-28T01:55:42;2.20;;;1.77;;
12567;SDS011;6349;50.904;6.136;2023-02-28T01:57:46;2.63;;;1.90;;
12567;SDS011;6349;50.904;6.136;2023-02-28T01:59:52;2.37;;;2.00;;
12567;SDS011;6349;50.904;6.136;2023-02-28T02:01:58;2.53;;;1.90;;
12567;SDS011;6349;50.904;6.136;2023-02-28T02:04:01;2.50;;;1.80;;
12567;SDS011;6349;50.904;6.136;2023-02-28T02:06:03;2.23;;;1.77;;
12567;SDS011;6349;50.904;6.136;2023-02-28T02:08:05;3.73;;;2.00;;
12567;SDS011;6349;50.904;6.136;2023-02-28T02:10:14;3.07;;;1.93;;
12567;SDS011;6349;50.904;6.136;2023-02-28T02:12:23;4.13;;;2.10;;
12567;SDS011;6349;50.904;6.136;2023-02-28T02:14:39;2.40;;;1.90;;
12567;SDS011;6349;50.904;6.136;2023-02-28T02:16:59;2.47;;;2.00;;
12567;SDS011;6349;50.904;6.136;2023-02-28T02:29:47;3.73;;;1.90;;
12567;SDS011;6349;50.904;6.136;2023-02-28T02:37:11;3.97;;;2.10;;
12567;SDS011;6349;50.904;6.136;2023-02-28T02:39:30;2.90;;;2.50;;
12567;SDS011;6349;50.904;6.136;2023-02-28T02:41:51;3.73;;;2.40;;
12567;SDS011;6349;50.904;6.136;2023-02-28T02:43:58;2.27;;;1.93;;
12567;SDS011;6349;50.904;6.136;2023-02-28T02:46:06;5.47;;;2.30;;
12567;SDS011;6349;50.904;6.136;2023-02-28T02:48:16;3.50;;;2.07;;
12567;SDS011;6349;50.904;6.136;2023-02-28T02:50:22;3.30;;;2.00;;
12567;SDS011;6349;50.904;6.136;2023-02-28T02:52:31;4.73;;;2.27;;
12567;SDS011;6349;50.904;6.136;2023-02-28T02:54:40;3.23;;;2.20;;
12567;SDS011;6349;50.904;6.136;2023-02-28T02:56:44;3.67;;;1.80;;
12567;SDS011;6349;50.904;6.136;2023-02-28T02:58:48;2.17;;;1.60;;
12567;SDS011;6349;50.904;6.136;2023-02-28T03:00:52;4.07;;;1.80;;
12567;SDS011;6349;50.904;6.136;2023-02-28T03:02:56;4.33;;;1.73;;
12567;SDS011;6349;50.904;6.136;2023-02-28T03:04:59;3.27;;;1.60;;
12567;SDS011;6349;50.904;6.136;2023-02-28T03:07:02;4.33;;;1.90;;
12567;SDS011;6349;50.904;6.136;2023-02-28T03:09:03;2.27;;;1.77;;
12567;SDS011;6349;50.904;6.136;2023-02-28T03:11:06;2.50;;;1.73;;
12567;SDS011;6349;50.904;6.136;2023-02-28T03:15:50;2.30;;;1.70;;
12567;SDS011;6349;50.904;6.136;2023-02-28T03:18:01;1.97;;;1.60;;
12567;SDS011;6349;50.904;6.136;2023-02-28T03:22:52;1.90;;;1.70;;
12567;SDS011;6349;50.904;6.136;2023-02-28T03:25:13;2.70;;;1.90;;
12567;SDS011;6349;50.904;6.136;2023-02-28T03:30:06;5.10;;;2.13;;
12567;SDS011;6349;50.904;6.136;2023-02-28T03:32:23;3.00;;;1.93;;
12567;SDS011;6349;50.904;6.136;2023-02-28T03:34:32;5.50;;;2.00;;
12567;SDS011;6349;50.904;6.136;2023-02-28T03:36:39;3.07;;;2.20;;
12567;SDS011;6349;50.904;6.136;2023-02-28T03:38:45;3.07;;;2.07;;
12567;SDS011;6349;50.904;6.136;2023-02-28T03:40:51;3.23;;;2.03;;
12567;SDS011;6349;50.904;6.136;2023-02-28T03:43:01;2.87;;;2.00;;
12567;SDS011;6349;50.904;6.136;2023-02-28T03:45:11;3.30;;;2.00;;
12567;SDS011;6349;50.904;6.136;2023-02-28T03:47:20;3.53;;;2.27;;
12567;SDS011;6349;50.904;6.136;2023-02-28T03:49:27;3.30;;;2.20;;
12567;SDS011;6349;50.904;6.136;2023-02-28T03:51:34;2.87;;;2.00;;
12567;SDS011;6349;50.904;6.136;2023-02-28T03:53:38;4.33;;;1.80;;
12567;SDS011;6349;50.904;6.136;2023-02-28T03:55:43;2.87;;;1.70;;
12567;SDS011;6349;50.904;6.136;2023-02-28T03:58:05;4.17;;;2.20;;
12567;SDS011;6349;50.904;6.136;2023-02-28T04:00:29;2.93;;;2.13;;
12567;SDS011;6349;50.904;6.136;2023-02-28T04:02:34;4.47;;;2.30;;
12567;SDS011;6349;50.904;6.136;2023-02-28T04:04:34;3.50;;;2.03;;
12567;SDS011;6349;50.904;6.136;2023-02-28T04:06:36;3.40;;;2.23;;
12567;SDS011;6349;50.904;6.136;2023-02-28T04:08:37;3.60;;;2.20;;
12567;SDS011;6349;50.904;6.136;2023-02-28T04:10:37;3.17;;;2.30;;
12567;SDS011;6349;50.904;6.136;2023-02-28T04:12:39;2.57;;;2.20;;
12567;SDS011;6349;50.904;6.136;2023-02-28T04:14:39;2.90;;;2.17;;
12567;SDS011;6349;50.904;6.136;2023-02-28T04:16:41;2.80;;;2.10;;
12567;SDS011;6349;50.904;6.136;2023-02-28T04:18:42;2.80;;;2.13;;
12567;SDS011;6349;50.904;6.136;2023-02-28T04:20:43;3.60;;;2.10;;
12567;SDS011;6349;50.904;6.136;2023-02-28T04:22:43;3.40;;;2.40;;
12567;SDS011;6349;50.904;6.136;2023-02-28T04:24:44;2.80;;;2.00;;
12567;SDS011;6349;50.904;6.136;2023-02-28T04:26:45;3.07;;;2.47;;
12567;SDS011;6349;50.904;6.136;2023-02-28T04:28:47;3.80;;;2.50;;
12567;SDS011;6349;50.904;6.136;2023-02-28T04:30:53;3.40;;;2.50;;
12567;SDS011;6349;50.904;6.136;2023-02-28T04:32:59;3.27;;;2.60;;
12567;SDS011;6349;50.904;6.136;2023-02-28T04:35:00;4.20;;;2.50;;
12567;SDS011;6349;50.904;6.136;2023-02-28T04:37:01;4.07;;;2.53;;
12567;SDS011;6349;50.904;6.136;2023-02-28T04:39:03;4.13;;;2.40;;
12567;SDS011;6349;50.904;6.136;2023-02-28T04:41:04;2.70;;;2.50;;
12567;SDS011;6349;50.904;6.136;2023-02-28T04:43:05;3.13;;;2.73;;
12567;SDS011;6349;50.904;6.136;2023-02-28T04:45:06;3.93;;;2.83;;
12567;SDS011;6349;50.904;6.136;2023-02-28T04:47:10;3.13;;;2.57;;
12567;SDS011;6349;50.904;6.136;2023-02-28T04:49:11;4.57;;;2.73;;
12567;SDS011;6349;50.904;6.136;2023-02-28T04:51:13;3.50;;;2.83;;
12567;SDS011;6349;50.904;6.136;2023-02-28T04:53:14;3.00;;;2.70;;
12567;SDS011;6349;50.904;6.136;2023-02-28T04:55:15;3.43;;;2.70;;
12567;SDS011;6349;50.904;6.136;2023-02-28T04:57:16;3.50;;;2.60;;
12567;SDS011;6349;50.904;6.136;2023-02-28T04:59:16;4.20;;;2.93;;
12567;SDS011;6349;50.904;6.136;2023-02-28T05:01:20;3.40;;;2.80;;
12567;SDS011;6349;50.904;6.136;2023-02-28T05:03:26;4.07;;;2.83;;
12567;SDS011;6349;50.904;6.136;2023-02-28T05:05:27;4.37;;;2.87;;
12567;SDS011;6349;50.904;6.136;2023-02-28T05:07:28;3.37;;;2.90;;
12567;SDS011;6349;50.904;6.136;2023-02-28T05:09:29;5.03;;;3.50;;
12567;SDS011;6349;50.904;6.136;2023-02-28T05:11:31;5.17;;;3.30;;
12567;SDS011;6349;50.904;6.136;2023-02-28T05:13:37;4.33;;;3.13;;
12567;SDS011;6349;50.904;6.136;2023-02-28T05:15:37;3.70;;;3.20;;
12567;SDS011;6349;50.904;6.136;2023-02-28T05:17:38;4.33;;;3.23;;
12567;SDS011;6349;50.904;6.136;2023-02-28T05:19:39;4.47;;;3.53;;
12567;SDS011;6349;50.904;6.136;2023-02-28T05:21:41;4.23;;;3.40;;
12567;SDS011;6349;50.904;6.136;2023-02-28T05:23:49;4.10;;;2.90;;
12567;SDS011;6349;50.904;6.136;2023-02-28T05:25:50;4.90;;;3.23;;
12567;SDS011;6349;50.904;6.136;2023-02-28T05:27:52;4.07;;;3.50;;
12567;SDS011;6349;50.904;6.136;2023-02-28T05:29:52;4.73;;;3.20;;
12567;SDS011;6349;50.904;6.136;2023-02-28T05:31:53;3.87;;;3.03;;
12567;SDS011;6349;50.904;6.136;2023-02-28T05:33:54;3.73;;;3.17;;
12567;SDS011;6349;50.904;6.136;2023-02-28T05:35:55;3.43;;;3.00;;
12567;SDS011;6349;50.904;6.136;2023-02-28T05:37:55;4.73;;;3.30;;
12567;SDS011;6349;50.904;6.136;2023-02-28T05:39:56;4.77;;;3.37;;
12567;SDS011;6349;50.904;6.136;2023-02-28T05:41:57;4.87;;;3.50;;
12567;SDS011;6349;50.904;6.136;2023-02-28T05:43:57;4.47;;;3.20;;
12567;SDS011;6349;50.904;6.136;2023-02-28T05:46:01;3.80;;;3.40;;
12567;SDS011;6349;50.904;6.136;2023-02-28T05:48:03;4.23;;;3.60;;
12567;SDS011;6349;50.904;6.136;2023-02-28T05:50:04;3.30;;;3.00;;
12567;SDS011;6349;50.904;6.136;2023-02-28T05:52:05;4.13;;;3.13;;
12567;SDS011;6349;50.904;6.136;2023-02-28T05:54:06;4.37;;;3.40;;
12567;SDS011;6349;50.904;6.136;2023-02-28T05:56:08;4.10;;;3.30;;
12567;SDS011;6349;50.904;6.136;2023-02-28T05:58:08;3.63;;;3.33;;
12567;SDS011;6349;50.904;6.136;2023-02-28T06:00:09;4.67;;;3.30;;
12567;SDS011;6349;50.904;6.136;2023-02-28T06:02:12;4.80;;;3.30;;
12567;SDS011;6349;50.904;6.136;2023-02-28T06:04:14;4.63;;;3.60;;
12567;SDS011;6349;50.904;6.136;2023-02-28T06:06:17;5.83;;;3.40;;
12567;SDS011;6349;50.904;6.136;2023-02-28T06:08:18;4.43;;;3.43;;
12567;SDS011;6349;50.904;6.136;2023-02-28T06:10:19;3.67;;;3.23;;
12567;SDS011;6349;50.904;6.136;2023-02-28T06:12:20;5.60;;;3.50;;
12567;SDS011;6349;50.904;6.136;2023-02-28T06:14:20;4.50;;;3.47;;
12567;SDS011;6349;50.904;6.136;2023-02-28T06:16:21;4.20;;;3.40;;
12567;SDS011;6349;50.904;6.136;2023-02-28T06:18:22;4.50;;;3.50;;
12567;SDS011;6349;50.904;6.136;2023-02-28T06:20:23;3.77;;;3.00;;
12567;SDS011;6349;50.904;6.136;2023-02-28T06:22:24;4.13;;;3.00;;
12567;SDS011;6349;50.904;6.136;2023-02-28T06:24:25;3.60;;;2.90;;
12567;SDS011;6349;50.904;6.136;2023-02-28T06:26:27;3.30;;;2.90;;
12567;SDS011;6349;50.904;6.136;2023-02-28T06:28:28;4.67;;;3.13;;
12567;SDS011;6349;50.904;6.136;2023-02-28T06:30:29;4.30;;;3.23;;
12567;SDS011;6349;50.904;6.136;2023-02-28T06:32:31;3.83;;;3.00;;
12567;SDS011;6349;50.904;6.136;2023-02-28T06:34:31;3.87;;;3.10;;
12567;SDS011;6349;50.904;6.136;2023-02-28T06:36:33;4.00;;;2.80;;
12567;SDS011;6349;50.904;6.136;2023-02-28T06:38:34;3.83;;;3.10;;
12567;SDS011;6349;50.904;6.136;2023-02-28T06:40:35;3.57;;;3.10;;
12567;SDS011;6349;50.904;6.136;2023-02-28T06:42:35;4.43;;;2.97;;
12567;SDS011;6349;50.904;6.136;2023-02-28T06:44:36;3.50;;;3.17;;
12567;SDS011;6349;50.904;6.136;2023-02-28T06:46:39;4.57;;;3.07;;
12567;SDS011;6349;50.904;6.136;2023-02-28T06:48:41;3.43;;;2.73;;
12567;SDS011;6349;50.904;6.136;2023-02-28T06:50:43;4.23;;;3.10;;
12567;SDS011;6349;50.904;6.136;2023-02-28T06:52:44;3.73;;;2.83;;
12567;SDS011;6349;50.904;6.136;2023-02-28T06:54:45;3.30;;;2.63;;
12567;SDS011;6349;50.904;6.136;2023-02-28T06:56:45;3.73;;;2.90;;
12567;SDS011;6349;50.904;6.136;2023-02-28T06:58:48;5.53;;;2.67;;
12567;SDS011;6349;50.904;6.136;2023-02-28T07:00:50;4.50;;;2.70;;
12567;SDS011;6349;50.904;6.136;2023-02-28T07:02:52;3.70;;;2.90;;
12567;SDS011;6349;50.904;6.136;2023-02-28T07:04:55;3.37;;;3.07;;
12567;SDS011;6349;50.904;6.136;2023-02-28T07:06:55;4.23;;;3.27;;
12567;SDS011;6349;50.904;6.136;2023-02-28T07:08:57;3.20;;;2.90;;
12567;SDS011;6349;50.904;6.136;2023-02-28T07:10:57;3.17;;;2.83;;
12567;SDS011;6349;50.904;6.136;2023-02-28T07:12:59;5.70;;;3.20;;
12567;SDS011;6349;50.904;6.136;2023-02-28T07:15:00;3.93;;;3.40;;
12567;SDS011;6349;50.904;6.136;2023-02-28T07:17:00;4.37;;;3.50;;
12567;SDS011;6349;50.904;6.136;2023-02-28T07:19:01;5.67;;;2.67;;
12567;SDS011;6349;50.904;6.136;2023-02-28T07:21:03;4.27;;;3.13;;
12567;SDS011;6349;50.904;6.136;2023-02-28T07:23:04;4.87;;;3.30;;
12567;SDS011;6349;50.904;6.136;2023-02-28T07:25:05;4.17;;;2.90;;
12567;SDS011;6349;50.904;6.136;2023-02-28T07:27:06;3.90;;;2.70;;
12567;SDS011;6349;50.904;6.136;2023-02-28T07:29:07;3.63;;;2.83;;
12567;SDS011;6349;50.904;6.136;2023-02-28T07:31:08;4.77;;;3.00;;
12567;SDS011;6349;50.904;6.136;2023-02-28T07:33:09;4.50;;;2.93;;
12567;SDS011;6349;50.904;6.136;2023-02-28T07:35:10;3.47;;;2.67;;
12567;SDS011;6349;50.904;6.136;2023-02-28T07:37:11;3.93;;;2.73;;
12567;SDS011;6349;50.904;6.136;2023-02-28T07:39:11;4.27;;;2.70;;
12567;SDS011;6349;50.904;6.136;2023-02-28T07:41:12;4.17;;;2.90;;
12567;SDS011;6349;50.904;6.136;2023-02-28T07:43:12;4.50;;;2.80;;
12567;SDS011;6349;50.904;6.136;2023-02-28T07:45:13;3.10;;;2.80;;
12567;SDS011;6349;50.904;6.136;2023-02-28T07:47:14;3.73;;;2.83;;
12567;SDS011;6349;50.904;6.136;2023-02-28T07:49:14;2.97;;;2.60;;
12567;SDS011;6349;50.904;6.136;2023-02-28T07:51:15;3.93;;;2.70;;
12567;SDS011;6349;50.904;6.136;2023-02-28T07:53:16;3.37;;;2.50;;
12567;SDS011;6349;50.904;6.136;2023-02-28T07:55:16;4.27;;;2.50;;
12567;SDS011;6349;50.904;6.136;2023-02-28T07:57:17;3.53;;;2.80;;
12567;SDS011;6349;50.904;6.136;2023-02-28T07:59:18;2.93;;;2.40;;
12567;SDS011;6349;50.904;6.136;2023-02-28T08:01:19;4.80;;;2.67;;
12567;SDS011;6349;50.904;6.136;2023-02-28T08:03:20;3.93;;;2.57;;
12567;SDS011;6349;50.904;6.136;2023-02-28T08:05:22;3.47;;;2.87;;
12567;SDS011;6349;50.904;6.136;2023-02-28T08:07:23;3.70;;;2.37;;
12567;SDS011;6349;50.904;6.136;2023-02-28T08:09:23;3.23;;;2.13;;
12567;SDS011;6349;50.904;6.136;2023-02-28T08:11:24;4.07;;;2.60;;
12567;SDS011;6349;50.904;6.136;2023-02-28T08:13:25;3.57;;;2.80;;
12567;SDS011;6349;50.904;6.136;2023-02-28T08:15:28;3.40;;;2.50;;
12567;SDS011;6349;50.904;6.136;2023-02-28T08:17:28;2.53;;;2.13;;
12567;SDS011;6349;50.904;6.136;2023-02-28T08:19:29;2.63;;;2.37;;
12567;SDS011;6349;50.904;6.136;2023-02-28T08:21:29;3.40;;;2.43;;
12567;SDS011;6349;50.904;6.136;2023-02-28T08:23:30;3.47;;;2.30;;
12567;SDS011;6349;50.904;6.136;2023-02-28T08:25:33;3.67;;;2.33;;
12567;SDS011;6349;50.904;6.136;2023-02-28T08:27:34;4.43;;;2.60;;
12567;SDS011;6349;50.904;6.136;2023-02-28T08:29:37;3.20;;;2.37;;
12567;SDS011;6349;50.904;6.136;2023-02-28T08:31:38;2.83;;;2.30;;
12567;SDS011;6349;50.904;6.136;2023-02-28T08:33:39;2.73;;;2.10;;
12567;SDS011;6349;50.904;6.136;2023-02-28T08:35:40;2.37;;;2.03;;
12567;SDS011;6349;50.904;6.136;2023-02-28T08:37:41;3.67;;;2.00;;
12567;SDS011;6349;50.904;6.136;2023-02-28T08:39:41;3.23;;;2.30;;
12567;SDS011;6349;50.904;6.136;2023-02-28T08:41:42;2.77;;;2.30;;
12567;SDS011;6349;50.904;6.136;2023-02-28T08:43:44;2.63;;;2.23;;
12567;SDS011;6349;50.904;6.136;2023-02-28T08:45:44;2.60;;;2.20;;
12567;SDS011;6349;50.904;6.136;2023-02-28T08:47:45;4.70;;;2.33;;
12567;SDS011;6349;50.904;6.136;2023-02-28T08:49:45;2.60;;;2.23;;
12567;SDS011;6349;50.904;6.136;2023-02-28T08:52:06;3.53;;;2.37;;
12567;SDS011;6349;50.904;6.136;2023-02-28T08:54:09;2.80;;;2.20;;
12567;SDS011;6349;50.904;6.136;2023-02-28T08:56:13;3.10;;;2.20;;
12567;SDS011;6349;50.904;6.136;2023-02-28T08:58:14;2.20;;;2.00;;
12567;SDS011;6349;50.904;6.136;2023-02-28T09:00:15;2.17;;;1.90;;
12567;SDS011;6349;50.904;6.136;2023-02-28T09:02:15;3.60;;;2.10;;
12567;SDS011;6349;50.904;6.136;2023-02-28T09:04:16;2.83;;;2.00;;
12567;SDS011;6349;50.904;6.136;2023-02-28T09:06:17;2.60;;;2.03;;
12567;SDS011;6349;50.904;6.136;2023-02-28T09:08:19;2.30;;;2.10;;
12567;SDS011;6349;50.904;6.136;2023-02-28T09:10:20;2.53;;;2.07;;
12567;SDS011;6349;50.904;6.136;2023-02-28T09:12:21;2.00;;;1.80;;
12567;SDS011;6349;50.904;6.136;2023-02-28T09:14:26;2.10;;;1.90;;
12567;SDS011;6349;50.904;6.136;2023-02-28T09:16:26;2.10;;;1.90;;
12567;SDS011;6349;50.904;6.136;2023-02-28T09:18:27;4.10;;;2.00;;
12567;SDS011;6349;50.904;6.136;2023-02-28T09:20:28;2.47;;;1.83;;
12567;SDS011;6349;50.904;6.136;2023-02-28T09:22:28;2.90;;;1.80;;
12567;SDS011;6349;50.904;6.136;2023-02-28T09:24:29;2.13;;;1.70;;
12567;SDS011;6349;50.904;6.136;2023-02-28T09:26:31;1.93;;;1.60;;
12567;SDS011;6349;50.904;6.136;2023-02-28T09:28:32;1.37;;;1.27;;
12567;SDS011;6349;50.904;6.136;2023-02-28T09:30:32;2.70;;;1.47;;
12567;SDS011;6349;50.904;6.136;2023-02-28T09:32:33;1.97;;;1.30;;
12567;SDS011;6349;50.904;6.136;2023-02-28T09:34:34;1.47;;;1.37;;
12567;SDS011;6349;50.904;6.136;2023-02-28T09:36:37;1.63;;;1.33;;
12567;SDS011;6349;50.904;6.136;2023-02-28T09:38:38;3.03;;;1.30;;
12567;SDS011;6349;50.904;6.136;2023-02-28T09:40:46;1.93;;;1.47;;
12567;SDS011;6349;50.904;6.136;2023-02-28T09:42:51;1.40;;;1.30;;
12567;SDS011;6349;50.904;6.136;2023-02-28T09:44:53;1.43;;;1.13;;
12567;SDS011;6349;50.904;6.136;2023-02-28T09:46:56;1.70;;;1.27;;
12567;SDS011;6349;50.904;6.136;2023-02-28T09:49:02;4.03;;;1.37;;
12567;SDS011;6349;50.904;6.136;2023-02-28T09:53:46;1.17;;;0.90;;
12567;SDS011;6349;50.904;6.136;2023-02-28T09:55:49;1.40;;;1.10;;
12567;SDS011;6349;50.904;6.136;2023-02-28T09:57:54;1.40;;;1.30;;
12567;SDS011;6349;50.904;6.136;2023-02-28T10:05:11;1.73;;;1.47;;
12567;SDS011;6349;50.904;6.136;2023-02-28T10:07:29;1.40;;;1.30;;
12567;SDS011;6349;50.904;6.136;2023-02-28T10:09:49;1.30;;;1.20;;
12567;SDS011;6349;50.904;6.136;2023-02-28T10:11:56;1.27;;;1.10;;
12567;SDS011;6349;50.904;6.136;2023-02-28T10:14:04;1.13;;;1.03;;
12567;SDS011;6349;50.904;6.136;2023-02-28T10:16:25;1.37;;;1.10;;
12567;SDS011;6349;50.904;6.136;2023-02-28T10:18:35;1.90;;;1.33;;
12567;SDS011;6349;50.904;6.136;2023-02-28T10:20:45;1.17;;;1.07;;
12567;SDS011;6349;50.904;6.136;2023-02-28T10:22:52;1.47;;;1.30;;
12567;SDS011;6349;50.904;6.136;2023-02-28T10:25:38;1.20;;;1.10;;
12567;SDS011;6349;50.904;6.136;2023-02-28T10:27:29;1.20;;;1.10;;
12567;SDS011;6349;50.904;6.136;2023-02-28T10:29:31;1.30;;;1.20;;
12567;SDS011;6349;50.904;6.136;2023-02-28T10:31:33;1.47;;;1.30;;
12567;SDS011;6349;50.904;6.136;2023-02-28T10:33:34;1.53;;;1.00;;
12567;SDS011;6349;50.904;6.136;2023-02-28T10:35:35;1.17;;;1.07;;
12567;SDS011;6349;50.904;6.136;2023-02-28T10:37:37;1.20;;;0.97;;
12567;SDS011;6349;50.904;6.136;2023-02-28T10:39:41;3.47;;;1.13;;
12567;SDS011;6349;50.904;6.136;2023-02-28T10:41:45;2.23;;;1.00;;
12567;SDS011;6349;50.904;6.136;2023-02-28T10:43:46;0.90;;;0.80;;
12567;SDS011;6349;50.904;6.136;2023-02-28T10:45:55;1.87;;;1.30;;
12567;SDS011;6349;50.904;6.136;2023-02-28T10:48:03;1.40;;;1.27;;
12567;SDS011;6349;50.904;6.136;2023-02-28T10:50:25;1.40;;;1.00;;
12567;SDS011;6349;50.904;6.136;2023-02-28T10:52:37;1.00;;;0.90;;
12567;SDS011;6349;50.904;6.136;2023-02-28T10:54:41;1.63;;;1.27;;
12567;SDS011;6349;50.904;6.136;2023-02-28T10:56:43;1.50;;;1.40;;
12567;SDS011;6349;50.904;6.136;2023-02-28T10:59:30;1.83;;;1.30;;
12567;SDS011;6349;50.904;6.136;2023-02-28T11:01:34;1.30;;;1.20;;
12567;SDS011;6349;50.904;6.136;2023-02-28T11:03:46;1.37;;;1.10;;
12567;SDS011;6349;50.904;6.136;2023-02-28T11:05:48;1.83;;;1.10;;
12567;SDS011;6349;50.904;6.136;2023-02-28T11:07:51;2.70;;;1.33;;
12567;SDS011;6349;50.904;6.136;2023-02-28T11:09:56;1.30;;;1.20;;
12567;SDS011;6349;50.904;6.136;2023-02-28T11:11:59;1.67;;;1.10;;
12567;SDS011;6349;50.904;6.136;2023-02-28T11:14:04;1.60;;;1.27;;
12567;SDS011;6349;50.904;6.136;2023-02-28T11:16:07;1.90;;;1.40;;
12567;SDS011;6349;50.904;6.136;2023-02-28T11:20:23;1.40;;;1.30;;
12567;SDS011;6349;50.904;6.136;2023-02-28T11:22:27;2.20;;;1.50;;
12567;SDS011;6349;50.904;6.136;2023-02-28T11:24:31;2.83;;;1.30;;
12567;SDS011;6349;50.904;6.136;2023-02-28T11:26:37;1.30;;;1.20;;
12567;SDS011;6349;50.904;6.136;2023-02-28T11:28:41;1.10;;;1.10;;
12567;SDS011;6349;50.904;6.136;2023-02-28T11:30:42;1.43;;;1.30;;
12567;SDS011;6349;50.904;6.136;2023-02-28T11:32:48;2.23;;;1.40;;
12567;SDS011;6349;50.904;6.136;2023-02-28T11:35:00;2.83;;;1.53;;
12567;SDS011;6349;50.904;6.136;2023-02-28T11:37:03;1.50;;;1.40;;
12567;SDS011;6349;50.904;6.136;2023-02-28T11:39:11;2.47;;;1.20;;
12567;SDS011;6349;50.904;6.136;2023-02-28T11:41:50;1.50;;;1.40;;
12567;SDS011;6349;50.904;6.136;2023-02-28T11:46:43;2.00;;;1.40;;
12567;SDS011;6349;50.904;6.136;2023-02-28T11:48:50;3.10;;;1.50;;
12567;SDS011;6349;50.904;6.136;2023-02-28T11:51:15;1.50;;;1.40;;
12567;SDS011;6349;50.904;6.136;2023-02-28T11:53:24;1.97;;;1.53;;
12567;SDS011;6349;50.904;6.136;2023-02-28T11:55:42;1.57;;;1.47;;
12567;SDS011;6349;50.904;6.136;2023-02-28T11:57:52;2.17;;;1.67;;
12567;SDS011;6349;50.904;6.136;2023-02-28T12:07:38;1.60;;;1.50;;
12567;SDS011;6349;50.904;6.136;2023-02-28T12:10:05;1.60;;;1.33;;
12567;SDS011;6349;50.904;6.136;2023-02-28T12:12:19;2.13;;;1.57;;
12567;SDS011;6349;50.904;6.136;2023-02-28T12:17:49;2.83;;;1.77;;
12567;SDS011;6349;50.904;6.136;2023-02-28T12:24:48;2.00;;;1.63;;
12567;SDS011;6349;50.904;6.136;2023-02-28T12:27:02;1.90;;;1.70;;
12567;SDS011;6349;50.904;6.136;2023-02-28T12:31:40;2.17;;;1.60;;
12567;SDS011;6349;50.904;6.136;2023-02-28T12:33:51;1.87;;;1.70;;
12567;SDS011;6349;50.904;6.136;2023-02-28T12:35:56;2.23;;;1.70;;
12567;SDS011;6349;50.904;6.136;2023-02-28T12:38:02;2.10;;;1.60;;
12567;SDS011;6349;50.904;6.136;2023-02-28T12:40:23;2.20;;;1.83;;
12567;SDS011;6349;50.904;6.136;2023-02-28T12:42:29;2.17;;;1.60;;
12567;SDS011;6349;50.904;6.136;2023-02-28T12:44:42;1.57;;;1.47;;
12567;SDS011;6349;50.904;6.136;2023-02-28T12:46:50;2.70;;;1.50;;
12567;SDS011;6349;50.904;6.136;2023-02-28T12:48:56;1.70;;;1.60;;
12567;SDS011;6349;50.904;6.136;2023-02-28T12:50:58;1.80;;;1.70;;
12567;SDS011;6349;50.904;6.136;2023-02-28T12:53:09;3.17;;;1.63;;
12567;SDS011;6349;50.904;6.136;2023-02-28T12:55:25;1.80;;;1.70;;
12567;SDS011;6349;50.904;6.136;2023-02-28T12:57:50;1.70;;;1.60;;
12567;SDS011;6349;50.904;6.136;2023-02-28T13:00:16;3.00;;;1.73;;
12567;SDS011;6349;50.904;6.136;2023-02-28T13:05:36;2.63;;;1.70;;
12567;SDS011;6349;50.904;6.136;2023-02-28T13:07:35;1.70;;;1.60;;
12567;SDS011;6349;50.904;6.136;2023-02-28T13:09:57;2.63;;;1.83;;
12567;SDS011;6349;50.904;6.136;2023-02-28T13:12:00;2.27;;;2.07;;
12567;SDS011;6349;50.904;6.136;2023-02-28T13:14:03;2.00;;;1.80;;
12567;SDS011;6349;50.904;6.136;2023-02-28T13:16:06;2.07;;;1.80;;
12567;SDS011;6349;50.904;6.136;2023-02-28T13:18:20;2.37;;;1.70;;
12567;SDS011;6349;50.904;6.136;2023-02-28T13:20:34;1.80;;;1.70;;
12567;SDS011;6349;50.904;6.136;2023-02-28T13:22:38;1.70;;;1.60;;
12567;SDS011;6349;50.904;6.136;2023-02-28T13:24:49;2.10;;;1.77;;
12567;SDS011;6349;50.904;6.136;2023-02-28T13:29:21;2.33;;;1.70;;
12567;SDS011;6349;50.904;6.136;2023-02-28T13:34:17;2.40;;;1.97;;
12567;SDS011;6349;50.904;6.136;2023-02-28T13:38:42;3.67;;;1.67;;
12567;SDS011;6349;50.904;6.136;2023-02-28T13:40:46;2.37;;;1.83;;
12567;SDS011;6349;50.904;6.136;2023-02-28T13:42:48;3.77;;;1.97;;
12567;SDS011;6349;50.904;6.136;2023-02-28T13:47:21;3.13;;;1.80;;
12567;SDS011;6349;50.904;6.136;2023-02-28T13:49:26;1.80;;;1.70;;